Rapports METAR des aéroports proches

 

LFSI - St. Dizier/Robin, France
Distance from station: SO 26km
Mise à jour: 16/01/2018 23:30
Thunderstorm
Thunderstorm
 Wind from OSO
Vent: OSO 15 km/h
Température: 5°C
Wind Chill: 2°C
Point de rosée: 4°C
Humidité: 93%
Baromètre: 1000 hPa
Clouds: Thunderstorm
Visibility: 10 km
Cloud details: Few Clouds 305 m
nuageux 640 m
nuageux 1311 m
2018/01/16 22:30 LFSI 162230Z AUTO 25008KT 9999 FEW010/// BKN021/// BKN043/// ///TCU 05/04 Q1000
LFSO - Nancy/Ochey (faf, France
Distance from station: ESE 62km
Mise à jour: 16/01/2018 23:30
Drizzle, Thunderstorm
Drizzle, Thunderstorm
 Wind from O
Vent: O 17 km/h
Température: 4°C
Wind Chill: 0°C
Point de rosée: 3°C
Humidité: 93%
Baromètre: 999 hPa
Résumé: Drizzle
Clouds: Thunderstorm
Visibility: 10 km
Cloud details: partiellement nuageux 213 m
couvert 427 m
2018/01/16 22:30 LFSO 162230Z AUTO 26009KT 230V310 9999 DZ SCT007/// OVC014/// ///TCU 04/03 Q0999 TEMPO 4000 SHRA
 
LFOK - Chalons/Vatry Fa, France
Distance from station: O 73km
Mise à jour: 16/01/2018 23:30
nuageux
nuageux
 Wind from SO
Vent: SO 30 km/h
Température: 5°C
Wind Chill: 0°C
Point de rosée: 4°C
Humidité: 93%
Baromètre: 1000 hPa
Clouds: nuageux
Visibility: 10 km
Cloud details: Few Clouds 610 m
nuageux 2804 m
nuageux 3962 m
2018/01/16 22:30 LFOK 162230Z AUTO 23016KT 9999 FEW020 BKN092 BKN130 05/04 Q1000 TEMPO 27025G40KT 2000 TSRAGS BKN007 BKN015CB
LFSN - Nancy/Essey, France
Distance from station: E 77km
Mise à jour: 16/01/2018 23:30
Pluie, Thunderstorm
Pluie, Thunderstorm
 Wind from O
Vent: O 19 km/h
Température: 4°C
Wind Chill: 0°C
Point de rosée: 2°C
Humidité: 87%
Baromètre: 1000 hPa
Résumé: Pluie
Clouds: Thunderstorm
Visibility: 9 km
Cloud details: partiellement nuageux 610 m
nuageux 762 m
nuageux 1006 m
2018/01/16 22:30 LFSN 162230Z AUTO 26010KT 230V290 9000 RA SCT020/// BKN025/// BKN033/// ///TCU 04/02 Q1000
 
LFJL - Metz-Nancy-Lorra, France
Distance from station: ENE 82km
Mise à jour: 16/01/2018 23:30
Thunderstorm
Thunderstorm
 Wind from OSO
Vent: OSO 31 km/h
Température: 4°C
Wind Chill: -2°C
Point de rosée: 2°C
Humidité: 87%
Baromètre: 998 hPa
Clouds: Thunderstorm
Visibility: 10 km
Cloud details: nuageux 488 m
nuageux 2134 m
couvert 2621 m
2018/01/16 22:30 LFJL 162230Z AUTO 24017KT 9999 BKN016/// BKN070/// OVC086/// ///TCU 04/02 Q0998 TEMPO 29017G35KT 2500 SHRAGS BKN008 FEW020CB
LFQA - Reims/Prunay, France
Distance from station: ONO 89km
Mise à jour: 16/01/2018 23:30
nuageux
nuageux
 Wind from O
Vent: O 28 km/h, Rafale: 50 km/h
Température: 6°C
Wind Chill: 2°C
Point de rosée: 3°C
Humidité: 81%
Baromètre: 999 hPa
Clouds: nuageux
Visibility: 10 km
Cloud details: partiellement nuageux 762 m
nuageux 975 m
nuageux 3658 m
2018/01/16 22:30 LFQA 162230Z AUTO 26015G27KT 9999 SCT025 BKN032 BKN120 06/03 Q0999
 
LFQB - Troyes/Barberey, France
Distance from station: OSO 99km
Mise à jour: 16/01/2018 23:30
Thunderstorm
Thunderstorm
 Wind from O
Vent: O 33 km/h
Température: 6°C
Wind Chill: 1°C
Point de rosée: 3°C
Humidité: 81%
Baromètre: 1001 hPa
Clouds: Thunderstorm
Visibility: 10 km
Cloud details: Few Clouds 1280 m
nuageux 1951 m
nuageux 2316 m
2018/01/16 22:30 LFQB 162230Z AUTO 26018KT 9999 FEW042/// BKN064/// BKN076/// ///TCU 06/03 Q1001
ELLX - Luxembourg (aut), Luxembourg
Distance from station: NE 122km
Mise à jour: 16/01/2018 23:50
Light snow, Showers, nuageux
Light snow, Showers, nuageux
 Wind from O
Vent: O 11 km/h
Température: 0°C
Wind Chill: -4°C
Point de rosée: 0°C
Humidité: 100%
Baromètre: 996 hPa
Résumé: Light snow, Showers
Clouds: nuageux
Visibility: 1 km
Cloud details: partiellement nuageux 91 m
nuageux 152 m
2018/01/16 22:50 ELLX 162250Z 27006KT 1000 R24/P2000D -SHSN SCT003 BKN005 00/M00 Q0996 R24/591058 NOSIG